sensor_id;sensor_type;location;lat;lon;timestamp;P1;durP1;ratioP1;P2;durP2;ratioP2
26484;SDS011;18083;50.560;7.262;2023-02-18T00:01:35;3.33;;;0.88;;
26484;SDS011;18083;50.560;7.262;2023-02-18T00:04:02;1.00;;;0.90;;
26484;SDS011;18083;50.560;7.262;2023-02-18T00:06:31;0.60;;;0.60;;
26484;SDS011;18083;50.560;7.262;2023-02-18T00:08:59;0.62;;;0.62;;
26484;SDS011;18083;50.560;7.262;2023-02-18T00:11:28;0.60;;;0.60;;
26484;SDS011;18083;50.560;7.262;2023-02-18T00:13:56;0.80;;;0.80;;
26484;SDS011;18083;50.560;7.262;2023-02-18T00:16:24;0.93;;;0.78;;
26484;SDS011;18083;50.560;7.262;2023-02-18T00:18:55;0.90;;;0.90;;
26484;SDS011;18083;50.560;7.262;2023-02-18T00:21:23;3.25;;;1.77;;
26484;SDS011;18083;50.560;7.262;2023-02-18T00:23:50;0.90;;;0.60;;
26484;SDS011;18083;50.560;7.262;2023-02-18T00:26:18;1.12;;;0.65;;
26484;SDS011;18083;50.560;7.262;2023-02-18T00:28:45;1.43;;;0.50;;
26484;SDS011;18083;50.560;7.262;2023-02-18T00:31:18;0.60;;;0.60;;
26484;SDS011;18083;50.560;7.262;2023-02-18T00:33:46;0.75;;;0.68;;
26484;SDS011;18083;50.560;7.262;2023-02-18T00:36:14;1.05;;;0.50;;
26484;SDS011;18083;50.560;7.262;2023-02-18T00:38:45;0.57;;;0.37;;
26484;SDS011;18083;50.560;7.262;2023-02-18T00:41:13;0.50;;;0.50;;
26484;SDS011;18083;50.560;7.262;2023-02-18T00:43:40;1.17;;;0.40;;
26484;SDS011;18083;50.560;7.262;2023-02-18T00:46:08;0.88;;;0.60;;
26484;SDS011;18083;50.560;7.262;2023-02-18T00:48:35;0.47;;;0.47;;
26484;SDS011;18083;50.560;7.262;2023-02-18T00:51:03;2.42;;;0.65;;
26484;SDS011;18083;50.560;7.262;2023-02-18T00:53:31;0.30;;;0.30;;
26484;SDS011;18083;50.560;7.262;2023-02-18T00:55:58;0.82;;;0.60;;
26484;SDS011;18083;50.560;7.262;2023-02-18T00:58:26;0.88;;;0.60;;
26484;SDS011;18083;50.560;7.262;2023-02-18T01:00:53;2.52;;;0.98;;
26484;SDS011;18083;50.560;7.262;2023-02-18T01:03:21;5.33;;;2.65;;
26484;SDS011;18083;50.560;7.262;2023-02-18T01:05:49;5.85;;;2.50;;
26484;SDS011;18083;50.560;7.262;2023-02-18T01:08:17;5.15;;;2.47;;
26484;SDS011;18083;50.560;7.262;2023-02-18T01:10:45;4.40;;;2.40;;
26484;SDS011;18083;50.560;7.262;2023-02-18T01:13:13;5.87;;;2.30;;
26484;SDS011;18083;50.560;7.262;2023-02-18T01:15:41;3.08;;;1.90;;
26484;SDS011;18083;50.560;7.262;2023-02-18T01:18:09;3.08;;;2.10;;
26484;SDS011;18083;50.560;7.262;2023-02-18T01:20:37;0.60;;;0.60;;
26484;SDS011;18083;50.560;7.262;2023-02-18T01:23:05;0.57;;;0.57;;
26484;SDS011;18083;50.560;7.262;2023-02-18T01:25:35;1.63;;;1.00;;
26484;SDS011;18083;50.560;7.262;2023-02-18T01:28:02;0.72;;;0.70;;
26484;SDS011;18083;50.560;7.262;2023-02-18T01:30:29;1.00;;;0.73;;
26484;SDS011;18083;50.560;7.262;2023-02-18T01:32:56;1.00;;;0.90;;
26484;SDS011;18083;50.560;7.262;2023-02-18T01:35:24;0.50;;;0.50;;
26484;SDS011;18083;50.560;7.262;2023-02-18T01:37:51;0.83;;;0.83;;
26484;SDS011;18083;50.560;7.262;2023-02-18T01:40:26;0.83;;;0.73;;
26484;SDS011;18083;50.560;7.262;2023-02-18T01:42:48;0.63;;;0.63;;
26484;SDS011;18083;50.560;7.262;2023-02-18T01:48:03;1.77;;;0.60;;
26484;SDS011;18083;50.560;7.262;2023-02-18T01:50:36;0.87;;;0.60;;
26484;SDS011;18083;50.560;7.262;2023-02-18T01:53:03;0.85;;;0.50;;
26484;SDS011;18083;50.560;7.262;2023-02-18T01:55:31;0.60;;;0.60;;
26484;SDS011;18083;50.560;7.262;2023-02-18T01:57:59;0.97;;;0.87;;
26484;SDS011;18083;50.560;7.262;2023-02-18T02:00:28;1.80;;;0.80;;
26484;SDS011;18083;50.560;7.262;2023-02-18T02:02:56;1.00;;;1.00;;
26484;SDS011;18083;50.560;7.262;2023-02-18T02:05:23;0.60;;;0.60;;
26484;SDS011;18083;50.560;7.262;2023-02-18T02:07:51;1.17;;;0.80;;
26484;SDS011;18083;50.560;7.262;2023-02-18T02:10:19;1.83;;;0.77;;
26484;SDS011;18083;50.560;7.262;2023-02-18T02:15:30;1.97;;;0.80;;
26484;SDS011;18083;50.560;7.262;2023-02-18T02:37:27;0.50;;;0.50;;
26484;SDS011;18083;50.560;7.262;2023-02-18T02:39:56;1.43;;;0.47;;
26484;SDS011;18083;50.560;7.262;2023-02-18T02:44:56;0.77;;;0.50;;
26484;SDS011;18083;50.560;7.262;2023-02-18T02:47:31;1.30;;;0.50;;
26484;SDS011;18083;50.560;7.262;2023-02-18T02:52:35;1.43;;;0.47;;
26484;SDS011;18083;50.560;7.262;2023-02-18T02:54:53;0.23;;;0.23;;
26484;SDS011;18083;50.560;7.262;2023-02-18T02:59:54;0.50;;;0.50;;
26484;SDS011;18083;50.560;7.262;2023-02-18T03:02:25;0.57;;;0.40;;
26484;SDS011;18083;50.560;7.262;2023-02-18T03:15:37;0.53;;;0.40;;
26484;SDS011;18083;50.560;7.262;2023-02-18T03:18:12;0.30;;;0.30;;
26484;SDS011;18083;50.560;7.262;2023-02-18T03:20:38;0.73;;;0.40;;
26484;SDS011;18083;50.560;7.262;2023-02-18T03:23:06;0.20;;;0.20;;
26484;SDS011;18083;50.560;7.262;2023-02-18T03:25:34;0.27;;;0.27;;
26484;SDS011;18083;50.560;7.262;2023-02-18T03:28:08;0.40;;;0.40;;
26484;SDS011;18083;50.560;7.262;2023-02-18T03:30:37;0.40;;;0.40;;
26484;SDS011;18083;50.560;7.262;2023-02-18T03:33:03;0.10;;;0.10;;
26484;SDS011;18083;50.560;7.262;2023-02-18T03:35:31;0.47;;;0.40;;
26484;SDS011;18083;50.560;7.262;2023-02-18T03:38:03;0.33;;;0.28;;
26484;SDS011;18083;50.560;7.262;2023-02-18T03:40:30;0.30;;;0.30;;
26484;SDS011;18083;50.560;7.262;2023-02-18T03:42:58;0.23;;;0.23;;
26484;SDS011;18083;50.560;7.262;2023-02-18T03:45:26;0.53;;;0.50;;
26484;SDS011;18083;50.560;7.262;2023-02-18T03:47:53;1.65;;;0.40;;
26484;SDS011;18083;50.560;7.262;2023-02-18T03:50:21;0.47;;;0.37;;
26484;SDS011;18083;50.560;7.262;2023-02-18T03:52:48;0.30;;;0.30;;
26484;SDS011;18083;50.560;7.262;2023-02-18T03:55:16;0.20;;;0.20;;
26484;SDS011;18083;50.560;7.262;2023-02-18T03:57:43;0.45;;;0.30;;
26484;SDS011;18083;50.560;7.262;2023-02-18T04:00:10;0.33;;;0.30;;
26484;SDS011;18083;50.560;7.262;2023-02-18T04:02:38;0.37;;;0.30;;
26484;SDS011;18083;50.560;7.262;2023-02-18T04:05:05;0.20;;;0.20;;
26484;SDS011;18083;50.560;7.262;2023-02-18T04:07:33;0.20;;;0.13;;
26484;SDS011;18083;50.560;7.262;2023-02-18T04:10:00;0.28;;;0.13;;
26484;SDS011;18083;50.560;7.262;2023-02-18T04:12:27;0.10;;;0.10;;
26484;SDS011;18083;50.560;7.262;2023-02-18T04:14:55;0.20;;;0.20;;
26484;SDS011;18083;50.560;7.262;2023-02-18T04:17:22;1.77;;;0.30;;
26484;SDS011;18083;50.560;7.262;2023-02-18T04:19:49;0.10;;;0.10;;
26484;SDS011;18083;50.560;7.262;2023-02-18T04:22:17;0.10;;;0.10;;
26484;SDS011;18083;50.560;7.262;2023-02-18T04:24:44;0.10;;;0.10;;
26484;SDS011;18083;50.560;7.262;2023-02-18T04:27:11;0.20;;;0.10;;
26484;SDS011;18083;50.560;7.262;2023-02-18T04:29:39;0.20;;;0.20;;
26484;SDS011;18083;50.560;7.262;2023-02-18T04:32:06;0.10;;;0.10;;
26484;SDS011;18083;50.560;7.262;2023-02-18T04:34:33;0.20;;;0.10;;
26484;SDS011;18083;50.560;7.262;2023-02-18T04:37:01;0.00;;;0.00;;
26484;SDS011;18083;50.560;7.262;2023-02-18T04:39:28;0.10;;;0.10;;
26484;SDS011;18083;50.560;7.262;2023-02-18T04:41:55;0.10;;;0.10;;
26484;SDS011;18083;50.560;7.262;2023-02-18T04:44:23;0.20;;;0.20;;
26484;SDS011;18083;50.560;7.262;2023-02-18T04:46:50;0.10;;;0.10;;
26484;SDS011;18083;50.560;7.262;2023-02-18T04:49:17;0.10;;;0.10;;
26484;SDS011;18083;50.560;7.262;2023-02-18T04:51:45;0.10;;;0.10;;
26484;SDS011;18083;50.560;7.262;2023-02-18T04:54:12;0.10;;;0.10;;
26484;SDS011;18083;50.560;7.262;2023-02-18T04:56:39;0.03;;;0.03;;
26484;SDS011;18083;50.560;7.262;2023-02-18T04:59:07;0.10;;;0.10;;
26484;SDS011;18083;50.560;7.262;2023-02-18T05:01:34;0.10;;;0.10;;
26484;SDS011;18083;50.560;7.262;2023-02-18T05:04:01;0.10;;;0.10;;
26484;SDS011;18083;50.560;7.262;2023-02-18T05:06:29;0.17;;;0.10;;
26484;SDS011;18083;50.560;7.262;2023-02-18T05:08:56;0.23;;;0.23;;
26484;SDS011;18083;50.560;7.262;2023-02-18T05:11:23;0.10;;;0.10;;
26484;SDS011;18083;50.560;7.262;2023-02-18T05:13:51;0.25;;;0.13;;
26484;SDS011;18083;50.560;7.262;2023-02-18T05:16:18;0.05;;;0.05;;
26484;SDS011;18083;50.560;7.262;2023-02-18T05:18:45;0.10;;;0.10;;
26484;SDS011;18083;50.560;7.262;2023-02-18T05:21:13;0.10;;;0.10;;
26484;SDS011;18083;50.560;7.262;2023-02-18T05:23:40;0.33;;;0.20;;
26484;SDS011;18083;50.560;7.262;2023-02-18T05:26:07;0.00;;;0.00;;
26484;SDS011;18083;50.560;7.262;2023-02-18T05:28:35;0.13;;;0.13;;
26484;SDS011;18083;50.560;7.262;2023-02-18T05:31:02;0.15;;;0.15;;
26484;SDS011;18083;50.560;7.262;2023-02-18T05:33:29;0.53;;;0.20;;
26484;SDS011;18083;50.560;7.262;2023-02-18T05:35:57;0.10;;;0.10;;
26484;SDS011;18083;50.560;7.262;2023-02-18T05:38:24;0.20;;;0.10;;
26484;SDS011;18083;50.560;7.262;2023-02-18T05:40:51;0.10;;;0.10;;
26484;SDS011;18083;50.560;7.262;2023-02-18T05:43:19;0.03;;;0.03;;
26484;SDS011;18083;50.560;7.262;2023-02-18T05:45:46;0.10;;;0.10;;
26484;SDS011;18083;50.560;7.262;2023-02-18T05:48:13;0.25;;;0.20;;
26484;SDS011;18083;50.560;7.262;2023-02-18T05:50:41;0.10;;;0.10;;
26484;SDS011;18083;50.560;7.262;2023-02-18T05:53:09;0.15;;;0.03;;
26484;SDS011;18083;50.560;7.262;2023-02-18T05:55:36;0.20;;;0.10;;
26484;SDS011;18083;50.560;7.262;2023-02-18T05:58:04;1.17;;;0.20;;
26484;SDS011;18083;50.560;7.262;2023-02-18T06:00:31;0.10;;;0.10;;
26484;SDS011;18083;50.560;7.262;2023-02-18T06:02:59;0.07;;;0.07;;
26484;SDS011;18083;50.560;7.262;2023-02-18T06:05:26;0.00;;;0.00;;
26484;SDS011;18083;50.560;7.262;2023-02-18T06:07:53;0.17;;;0.17;;
26484;SDS011;18083;50.560;7.262;2023-02-18T06:10:21;0.10;;;0.10;;
26484;SDS011;18083;50.560;7.262;2023-02-18T06:12:48;0.77;;;0.30;;
26484;SDS011;18083;50.560;7.262;2023-02-18T06:15:15;0.20;;;0.20;;
26484;SDS011;18083;50.560;7.262;2023-02-18T06:17:43;0.20;;;0.10;;
26484;SDS011;18083;50.560;7.262;2023-02-18T06:20:10;0.10;;;0.10;;
26484;SDS011;18083;50.560;7.262;2023-02-18T06:22:38;0.10;;;0.10;;
26484;SDS011;18083;50.560;7.262;2023-02-18T06:25:05;0.10;;;0.10;;
26484;SDS011;18083;50.560;7.262;2023-02-18T06:27:33;0.20;;;0.10;;
26484;SDS011;18083;50.560;7.262;2023-02-18T06:30:00;0.10;;;0.10;;
26484;SDS011;18083;50.560;7.262;2023-02-18T06:32:27;1.72;;;0.10;;
26484;SDS011;18083;50.560;7.262;2023-02-18T06:34:54;0.00;;;0.00;;
26484;SDS011;18083;50.560;7.262;2023-02-18T06:37:22;0.23;;;0.23;;
26484;SDS011;18083;50.560;7.262;2023-02-18T06:39:49;0.62;;;0.62;;
26484;SDS011;18083;50.560;7.262;2023-02-18T06:42:16;0.40;;;0.40;;
26484;SDS011;18083;50.560;7.262;2023-02-18T06:44:44;0.80;;;0.80;;
26484;SDS011;18083;50.560;7.262;2023-02-18T06:47:11;2.13;;;1.20;;
26484;SDS011;18083;50.560;7.262;2023-02-18T06:49:38;1.90;;;1.40;;
26484;SDS011;18083;50.560;7.262;2023-02-18T06:52:06;0.93;;;0.83;;
26484;SDS011;18083;50.560;7.262;2023-02-18T06:54:33;0.80;;;0.80;;
26484;SDS011;18083;50.560;7.262;2023-02-18T06:57:00;0.63;;;0.57;;
26484;SDS011;18083;50.560;7.262;2023-02-18T06:59:28;0.35;;;0.30;;
26484;SDS011;18083;50.560;7.262;2023-02-18T07:01:55;0.70;;;0.70;;
26484;SDS011;18083;50.560;7.262;2023-02-18T07:04:22;1.33;;;1.10;;
26484;SDS011;18083;50.560;7.262;2023-02-18T07:06:50;0.77;;;0.70;;
26484;SDS011;18083;50.560;7.262;2023-02-18T07:09:17;0.60;;;0.60;;
26484;SDS011;18083;50.560;7.262;2023-02-18T07:11:44;1.17;;;1.10;;
26484;SDS011;18083;50.560;7.262;2023-02-18T07:14:12;0.55;;;0.50;;
26484;SDS011;18083;50.560;7.262;2023-02-18T07:16:39;0.30;;;0.30;;
26484;SDS011;18083;50.560;7.262;2023-02-18T07:19:06;1.13;;;0.23;;
26484;SDS011;18083;50.560;7.262;2023-02-18T07:21:33;0.40;;;0.40;;
26484;SDS011;18083;50.560;7.262;2023-02-18T07:24:01;0.20;;;0.20;;
26484;SDS011;18083;50.560;7.262;2023-02-18T07:26:28;0.27;;;0.27;;
26484;SDS011;18083;50.560;7.262;2023-02-18T07:28:55;0.20;;;0.20;;
26484;SDS011;18083;50.560;7.262;2023-02-18T07:31:23;0.28;;;0.28;;
26484;SDS011;18083;50.560;7.262;2023-02-18T07:33:50;0.10;;;0.10;;
26484;SDS011;18083;50.560;7.262;2023-02-18T07:36:17;0.20;;;0.20;;
26484;SDS011;18083;50.560;7.262;2023-02-18T07:38:45;0.20;;;0.20;;
26484;SDS011;18083;50.560;7.262;2023-02-18T07:41:17;0.30;;;0.20;;
26484;SDS011;18083;50.560;7.262;2023-02-18T07:43:41;0.20;;;0.20;;
26484;SDS011;18083;50.560;7.262;2023-02-18T07:46:08;0.20;;;0.20;;
26484;SDS011;18083;50.560;7.262;2023-02-18T07:48:35;0.10;;;0.10;;
26484;SDS011;18083;50.560;7.262;2023-02-18T07:51:06;0.10;;;0.10;;
26484;SDS011;18083;50.560;7.262;2023-02-18T07:53:34;0.10;;;0.10;;
26484;SDS011;18083;50.560;7.262;2023-02-18T07:56:01;0.70;;;0.10;;
26484;SDS011;18083;50.560;7.262;2023-02-18T07:58:33;0.10;;;0.10;;
26484;SDS011;18083;50.560;7.262;2023-02-18T08:01:07;0.10;;;0.10;;
26484;SDS011;18083;50.560;7.262;2023-02-18T08:03:35;0.30;;;0.10;;
26484;SDS011;18083;50.560;7.262;2023-02-18T08:06:03;0.10;;;0.10;;
26484;SDS011;18083;50.560;7.262;2023-02-18T08:08:31;0.17;;;0.17;;
26484;SDS011;18083;50.560;7.262;2023-02-18T08:11:01;0.33;;;0.23;;
26484;SDS011;18083;50.560;7.262;2023-02-18T08:13:31;0.20;;;0.17;;
26484;SDS011;18083;50.560;7.262;2023-02-18T08:15:59;0.10;;;0.10;;
26484;SDS011;18083;50.560;7.262;2023-02-18T08:18:26;0.20;;;0.20;;
26484;SDS011;18083;50.560;7.262;2023-02-18T08:20:53;0.20;;;0.20;;
26484;SDS011;18083;50.560;7.262;2023-02-18T08:23:21;0.20;;;0.15;;
26484;SDS011;18083;50.560;7.262;2023-02-18T08:25:51;0.35;;;0.30;;
26484;SDS011;18083;50.560;7.262;2023-02-18T08:28:22;1.62;;;0.65;;
26484;SDS011;18083;50.560;7.262;2023-02-18T08:30:51;1.00;;;0.50;;
26484;SDS011;18083;50.560;7.262;2023-02-18T08:33:18;0.20;;;0.20;;
26484;SDS011;18083;50.560;7.262;2023-02-18T08:35:46;0.33;;;0.33;;
26484;SDS011;18083;50.560;7.262;2023-02-18T08:38:15;0.55;;;0.30;;
26484;SDS011;18083;50.560;7.262;2023-02-18T08:40:42;1.55;;;0.20;;
26484;SDS011;18083;50.560;7.262;2023-02-18T08:43:09;2.00;;;0.37;;
26484;SDS011;18083;50.560;7.262;2023-02-18T08:45:37;1.40;;;0.10;;
26484;SDS011;18083;50.560;7.262;2023-02-18T08:48:05;0.33;;;0.33;;
26484;SDS011;18083;50.560;7.262;2023-02-18T08:50:32;0.03;;;0.03;;
26484;SDS011;18083;50.560;7.262;2023-02-18T08:53:00;0.57;;;0.50;;
26484;SDS011;18083;50.560;7.262;2023-02-18T08:55:29;0.30;;;0.20;;
26484;SDS011;18083;50.560;7.262;2023-02-18T08:57:56;0.37;;;0.30;;
26484;SDS011;18083;50.560;7.262;2023-02-18T09:00:23;0.85;;;0.20;;
26484;SDS011;18083;50.560;7.262;2023-02-18T09:02:51;1.60;;;0.23;;
26484;SDS011;18083;50.560;7.262;2023-02-18T09:05:18;0.30;;;0.30;;
26484;SDS011;18083;50.560;7.262;2023-02-18T09:07:45;0.20;;;0.20;;
26484;SDS011;18083;50.560;7.262;2023-02-18T09:10:13;0.13;;;0.13;;
26484;SDS011;18083;50.560;7.262;2023-02-18T09:12:40;0.60;;;0.37;;
26484;SDS011;18083;50.560;7.262;2023-02-18T09:15:07;0.20;;;0.20;;
26484;SDS011;18083;50.560;7.262;2023-02-18T09:17:35;0.95;;;0.50;;
26484;SDS011;18083;50.560;7.262;2023-02-18T09:20:02;2.95;;;0.45;;
26484;SDS011;18083;50.560;7.262;2023-02-18T09:22:30;0.37;;;0.37;;
26484;SDS011;18083;50.560;7.262;2023-02-18T09:24:58;0.70;;;0.60;;
26484;SDS011;18083;50.560;7.262;2023-02-18T09:27:25;1.30;;;0.60;;
26484;SDS011;18083;50.560;7.262;2023-02-18T09:29:53;1.40;;;0.85;;
26484;SDS011;18083;50.560;7.262;2023-02-18T09:32:20;1.67;;;1.17;;
26484;SDS011;18083;50.560;7.262;2023-02-18T09:34:50;0.62;;;0.60;;
26484;SDS011;18083;50.560;7.262;2023-02-18T09:37:19;1.95;;;1.07;;
26484;SDS011;18083;50.560;7.262;2023-02-18T09:39:46;2.10;;;1.03;;
26484;SDS011;18083;50.560;7.262;2023-02-18T09:42:14;5.85;;;0.80;;
26484;SDS011;18083;50.560;7.262;2023-02-18T09:44:44;2.40;;;0.75;;
26484;SDS011;18083;50.560;7.262;2023-02-18T09:47:12;2.55;;;0.88;;
26484;SDS011;18083;50.560;7.262;2023-02-18T09:49:42;1.00;;;0.90;;
26484;SDS011;18083;50.560;7.262;2023-02-18T09:52:15;2.67;;;1.35;;
26484;SDS011;18083;50.560;7.262;2023-02-18T09:54:38;2.90;;;1.30;;
26484;SDS011;18083;50.560;7.262;2023-02-18T09:57:05;2.07;;;0.83;;
26484;SDS011;18083;50.560;7.262;2023-02-18T09:59:34;3.40;;;0.88;;
26484;SDS011;18083;50.560;7.262;2023-02-18T10:02:02;4.28;;;1.27;;
26484;SDS011;18083;50.560;7.262;2023-02-18T10:04:37;4.72;;;0.70;;
26484;SDS011;18083;50.560;7.262;2023-02-18T10:07:04;2.12;;;0.90;;
26484;SDS011;18083;50.560;7.262;2023-02-18T10:09:33;1.93;;;0.60;;
26484;SDS011;18083;50.560;7.262;2023-02-18T10:12:06;1.80;;;0.60;;
26484;SDS011;18083;50.560;7.262;2023-02-18T10:14:29;3.20;;;1.00;;
26484;SDS011;18083;50.560;7.262;2023-02-18T10:16:57;2.30;;;1.02;;
26484;SDS011;18083;50.560;7.262;2023-02-18T10:21:56;0.70;;;0.70;;
26484;SDS011;18083;50.560;7.262;2023-02-18T10:26:58;1.90;;;0.55;;
26484;SDS011;18083;50.560;7.262;2023-02-18T10:29:26;2.75;;;1.12;;
26484;SDS011;18083;50.560;7.262;2023-02-18T10:32:03;3.65;;;0.98;;
26484;SDS011;18083;50.560;7.262;2023-02-18T10:34:39;5.67;;;0.98;;
26484;SDS011;18083;50.560;7.262;2023-02-18T10:42:55;3.05;;;0.70;;
26484;SDS011;18083;50.560;7.262;2023-02-18T10:44:47;1.70;;;0.93;;
26484;SDS011;18083;50.560;7.262;2023-02-18T10:47:31;1.57;;;0.75;;
26484;SDS011;18083;50.560;7.262;2023-02-18T10:49:55;4.85;;;1.10;;
26484;SDS011;18083;50.560;7.262;2023-02-18T10:52:23;2.22;;;0.98;;
26484;SDS011;18083;50.560;7.262;2023-02-18T10:54:57;2.27;;;0.95;;
26484;SDS011;18083;50.560;7.262;2023-02-18T10:57:25;1.50;;;1.10;;
26484;SDS011;18083;50.560;7.262;2023-02-18T10:59:56;3.70;;;2.22;;
26484;SDS011;18083;50.560;7.262;2023-02-18T11:02:23;1.40;;;1.12;;
26484;SDS011;18083;50.560;7.262;2023-02-18T11:04:50;4.12;;;0.98;;
26484;SDS011;18083;50.560;7.262;2023-02-18T11:07:18;3.92;;;1.02;;
26484;SDS011;18083;50.560;7.262;2023-02-18T11:09:47;4.20;;;0.90;;
26484;SDS011;18083;50.560;7.262;2023-02-18T11:15:03;1.33;;;0.67;;
26484;SDS011;18083;50.560;7.262;2023-02-18T11:17:25;2.92;;;1.25;;
26484;SDS011;18083;50.560;7.262;2023-02-18T11:20:01;1.70;;;0.90;;
26484;SDS011;18083;50.560;7.262;2023-02-18T11:22:28;1.77;;;0.98;;
26484;SDS011;18083;50.560;7.262;2023-02-18T11:24:57;5.80;;;1.12;;
26484;SDS011;18083;50.560;7.262;2023-02-18T11:27:27;4.62;;;1.05;;
26484;SDS011;18083;50.560;7.262;2023-02-18T11:29:58;2.22;;;0.90;;
26484;SDS011;18083;50.560;7.262;2023-02-18T11:32:25;1.80;;;0.82;;
26484;SDS011;18083;50.560;7.262;2023-02-18T11:34:51;1.02;;;0.80;;
26484;SDS011;18083;50.560;7.262;2023-02-18T11:37:19;0.68;;;0.60;;
26484;SDS011;18083;50.560;7.262;2023-02-18T11:39:47;4.42;;;1.00;;
26484;SDS011;18083;50.560;7.262;2023-02-18T11:42:16;1.95;;;0.75;;
26484;SDS011;18083;50.560;7.262;2023-02-18T11:44:51;2.90;;;0.88;;
26484;SDS011;18083;50.560;7.262;2023-02-18T11:49:58;1.07;;;0.90;;
26484;SDS011;18083;50.560;7.262;2023-02-18T11:55:02;1.82;;;1.32;;
26484;SDS011;18083;50.560;7.262;2023-02-18T11:57:30;3.45;;;1.27;;
26484;SDS011;18083;50.560;7.262;2023-02-18T11:59:58;2.17;;;1.15;;
26484;SDS011;18083;50.560;7.262;2023-02-18T12:05:02;3.22;;;2.37;;
26484;SDS011;18083;50.560;7.262;2023-02-18T12:07:30;1.50;;;1.07;;
26484;SDS011;18083;50.560;7.262;2023-02-18T12:10:00;2.90;;;1.07;;
26484;SDS011;18083;50.560;7.262;2023-02-18T12:12:29;2.07;;;1.00;;
26484;SDS011;18083;50.560;7.262;2023-02-18T12:14:56;1.63;;;1.20;;
26484;SDS011;18083;50.560;7.262;2023-02-18T12:30:17;1.57;;;1.47;;
26484;SDS011;18083;50.560;7.262;2023-02-18T12:32:41;1.45;;;1.02;;
26484;SDS011;18083;50.560;7.262;2023-02-18T12:40:09;0.70;;;0.70;;
26484;SDS011;18083;50.560;7.262;2023-02-18T12:48:00;1.32;;;0.60;;
26484;SDS011;18083;50.560;7.262;2023-02-18T12:51:03;0.60;;;0.60;;
26484;SDS011;18083;50.560;7.262;2023-02-18T13:08:04;0.40;;;0.30;;
26484;SDS011;18083;50.560;7.262;2023-02-18T13:13:23;0.60;;;0.60;;
26484;SDS011;18083;50.560;7.262;2023-02-18T13:15:49;3.70;;;0.53;;
26484;SDS011;18083;50.560;7.262;2023-02-18T13:18:21;0.30;;;0.30;;
26484;SDS011;18083;50.560;7.262;2023-02-18T13:20:51;1.30;;;0.40;;
26484;SDS011;18083;50.560;7.262;2023-02-18T13:23:41;0.33;;;0.20;;
26484;SDS011;18083;50.560;7.262;2023-02-18T13:26:04;0.43;;;0.40;;
26484;SDS011;18083;50.560;7.262;2023-02-18T13:39:03;0.37;;;0.37;;
26484;SDS011;18083;50.560;7.262;2023-02-18T13:41:26;0.30;;;0.30;;
26484;SDS011;18083;50.560;7.262;2023-02-18T13:43:54;0.78;;;0.78;;
26484;SDS011;18083;50.560;7.262;2023-02-18T13:46:26;0.23;;;0.23;;
26484;SDS011;18083;50.560;7.262;2023-02-18T13:48:51;0.47;;;0.47;;
26484;SDS011;18083;50.560;7.262;2023-02-18T13:54:03;0.30;;;0.30;;
26484;SDS011;18083;50.560;7.262;2023-02-18T13:56:26;0.60;;;0.50;;
26484;SDS011;18083;50.560;7.262;2023-02-18T13:58:58;0.30;;;0.28;;
26484;SDS011;18083;50.560;7.262;2023-02-18T14:04:01;0.50;;;0.50;;
26484;SDS011;18083;50.560;7.262;2023-02-18T14:06:32;1.05;;;0.50;;
26484;SDS011;18083;50.560;7.262;2023-02-18T14:17:12;0.40;;;0.40;;
26484;SDS011;18083;50.560;7.262;2023-02-18T14:19:40;0.30;;;0.30;;
26484;SDS011;18083;50.560;7.262;2023-02-18T14:22:26;0.30;;;0.30;;
26484;SDS011;18083;50.560;7.262;2023-02-18T14:25:13;1.30;;;0.50;;
26484;SDS011;18083;50.560;7.262;2023-02-18T14:27:31;0.73;;;0.30;;
26484;SDS011;18083;50.560;7.262;2023-02-18T14:30:13;0.53;;;0.50;;
26484;SDS011;18083;50.560;7.262;2023-02-18T14:32:30;0.30;;;0.30;;
26484;SDS011;18083;50.560;7.262;2023-02-18T14:37:48;0.45;;;0.45;;
26484;SDS011;18083;50.560;7.262;2023-02-18T14:40:18;0.60;;;0.60;;
26484;SDS011;18083;50.560;7.262;2023-02-18T14:43:00;0.80;;;0.40;;
26484;SDS011;18083;50.560;7.262;2023-02-18T14:45:32;1.02;;;0.47;;
26484;SDS011;18083;50.560;7.262;2023-02-18T14:50:45;0.68;;;0.65;;
26484;SDS011;18083;50.560;7.262;2023-02-18T14:53:14;0.40;;;0.40;;
26484;SDS011;18083;50.560;7.262;2023-02-18T14:55:44;0.72;;;0.30;;
26484;SDS011;18083;50.560;7.262;2023-02-18T15:00:42;1.43;;;0.47;;
26484;SDS011;18083;50.560;7.262;2023-02-18T15:03:13;0.47;;;0.30;;
26484;SDS011;18083;50.560;7.262;2023-02-18T15:05:41;0.73;;;0.37;;
26484;SDS011;18083;50.560;7.262;2023-02-18T15:08:15;0.50;;;0.30;;
26484;SDS011;18083;50.560;7.262;2023-02-18T15:13:20;0.20;;;0.20;;
26484;SDS011;18083;50.560;7.262;2023-02-18T15:15:51;0.77;;;0.40;;
26484;SDS011;18083;50.560;7.262;2023-02-18T15:18:25;1.20;;;0.30;;
26484;SDS011;18083;50.560;7.262;2023-02-18T15:20:50;0.30;;;0.30;;
26484;SDS011;18083;50.560;7.262;2023-02-18T15:23:18;1.63;;;0.33;;
26484;SDS011;18083;50.560;7.262;2023-02-18T15:25:50;0.95;;;0.35;;
26484;SDS011;18083;50.560;7.262;2023-02-18T15:28:27;0.75;;;0.40;;
26484;SDS011;18083;50.560;7.262;2023-02-18T15:30:55;0.55;;;0.40;;
26484;SDS011;18083;50.560;7.262;2023-02-18T15:33:23;1.25;;;0.30;;
26484;SDS011;18083;50.560;7.262;2023-02-18T15:35:50;2.12;;;1.27;;
26484;SDS011;18083;50.560;7.262;2023-02-18T15:38:18;0.40;;;0.40;;
26484;SDS011;18083;50.560;7.262;2023-02-18T15:40:46;0.70;;;0.50;;
26484;SDS011;18083;50.560;7.262;2023-02-18T15:43:16;0.50;;;0.50;;
26484;SDS011;18083;50.560;7.262;2023-02-18T15:45:44;0.40;;;0.35;;
26484;SDS011;18083;50.560;7.262;2023-02-18T15:48:36;0.13;;;0.13;;
26484;SDS011;18083;50.560;7.262;2023-02-18T15:50:44;0.53;;;0.45;;
26484;SDS011;18083;50.560;7.262;2023-02-18T15:53:13;0.33;;;0.33;;
26484;SDS011;18083;50.560;7.262;2023-02-18T15:55:42;0.47;;;0.20;;
26484;SDS011;18083;50.560;7.262;2023-02-18T15:58:16;0.40;;;0.40;;
26484;SDS011;18083;50.560;7.262;2023-02-18T16:00:40;0.30;;;0.30;;
26484;SDS011;18083;50.560;7.262;2023-02-18T16:03:11;0.40;;;0.30;;
26484;SDS011;18083;50.560;7.262;2023-02-18T16:05:38;0.28;;;0.28;;
26484;SDS011;18083;50.560;7.262;2023-02-18T16:08:23;0.30;;;0.30;;
26484;SDS011;18083;50.560;7.262;2023-02-18T16:11:08;0.57;;;0.40;;
26484;SDS011;18083;50.560;7.262;2023-02-18T16:13:33;0.42;;;0.33;;
26484;SDS011;18083;50.560;7.262;2023-02-18T16:16:00;0.42;;;0.30;;
26484;SDS011;18083;50.560;7.262;2023-02-18T16:18:37;0.30;;;0.30;;
26484;SDS011;18083;50.560;7.262;2023-02-18T16:23:39;0.30;;;0.30;;
26484;SDS011;18083;50.560;7.262;2023-02-18T16:26:19;0.68;;;0.50;;
26484;SDS011;18083;50.560;7.262;2023-02-18T16:28:44;0.30;;;0.30;;
26484;SDS011;18083;50.560;7.262;2023-02-18T16:31:12;0.85;;;0.40;;
26484;SDS011;18083;50.560;7.262;2023-02-18T16:33:41;0.20;;;0.20;;
26484;SDS011;18083;50.560;7.262;2023-02-18T16:36:10;0.30;;;0.30;;
26484;SDS011;18083;50.560;7.262;2023-02-18T16:38:37;0.95;;;0.50;;
26484;SDS011;18083;50.560;7.262;2023-02-18T16:41:05;2.40;;;0.50;;
26484;SDS011;18083;50.560;7.262;2023-02-18T16:43:32;0.30;;;0.30;;
26484;SDS011;18083;50.560;7.262;2023-02-18T16:46:04;0.40;;;0.40;;
26484;SDS011;18083;50.560;7.262;2023-02-18T16:48:32;1.27;;;0.40;;
26484;SDS011;18083;50.560;7.262;2023-02-18T16:51:05;0.70;;;0.70;;
26484;SDS011;18083;50.560;7.262;2023-02-18T16:53:29;0.30;;;0.30;;
26484;SDS011;18083;50.560;7.262;2023-02-18T16:55:56;0.47;;;0.47;;
26484;SDS011;18083;50.560;7.262;2023-02-18T16:58:24;0.50;;;0.40;;
26484;SDS011;18083;50.560;7.262;2023-02-18T17:00:51;1.83;;;0.40;;
26484;SDS011;18083;50.560;7.262;2023-02-18T17:03:19;0.30;;;0.30;;
26484;SDS011;18083;50.560;7.262;2023-02-18T17:05:46;0.50;;;0.30;;
26484;SDS011;18083;50.560;7.262;2023-02-18T17:10:48;0.37;;;0.37;;
26484;SDS011;18083;50.560;7.262;2023-02-18T17:13:16;0.23;;;0.23;;
26484;SDS011;18083;50.560;7.262;2023-02-18T17:15:44;0.57;;;0.57;;
26484;SDS011;18083;50.560;7.262;2023-02-18T17:18:13;2.70;;;0.40;;
26484;SDS011;18083;50.560;7.262;2023-02-18T17:20:40;0.40;;;0.40;;